sensor_id;sensor_type;location;lat;lon;timestamp;P1;durP1;ratioP1;P2;durP2;ratioP2
48122;SDS011;33907;47.426;18.906;2023-04-01T00:00:12;5.70;;;1.92;;
48122;SDS011;33907;47.426;18.906;2023-04-01T00:02:40;6.25;;;2.50;;
48122;SDS011;33907;47.426;18.906;2023-04-01T00:05:09;9.30;;;2.87;;
48122;SDS011;33907;47.426;18.906;2023-04-01T00:07:40;7.85;;;3.05;;
48122;SDS011;33907;47.426;18.906;2023-04-01T00:10:09;6.78;;;2.37;;
48122;SDS011;33907;47.426;18.906;2023-04-01T00:12:38;5.00;;;1.98;;
48122;SDS011;33907;47.426;18.906;2023-04-01T00:15:06;4.53;;;2.30;;
48122;SDS011;33907;47.426;18.906;2023-04-01T00:17:37;6.25;;;2.72;;
48122;SDS011;33907;47.426;18.906;2023-04-01T00:20:06;5.12;;;2.55;;
48122;SDS011;33907;47.426;18.906;2023-04-01T00:22:34;5.68;;;2.80;;
48122;SDS011;33907;47.426;18.906;2023-04-01T00:25:03;5.30;;;2.53;;
48122;SDS011;33907;47.426;18.906;2023-04-01T00:27:31;5.55;;;2.95;;
48122;SDS011;33907;47.426;18.906;2023-04-01T00:29:59;5.57;;;2.60;;
48122;SDS011;33907;47.426;18.906;2023-04-01T00:32:26;5.10;;;2.70;;
48122;SDS011;33907;47.426;18.906;2023-04-01T00:34:54;5.28;;;2.92;;
48122;SDS011;33907;47.426;18.906;2023-04-01T00:37:21;7.22;;;3.55;;
48122;SDS011;33907;47.426;18.906;2023-04-01T00:39:50;6.95;;;3.28;;
48122;SDS011;33907;47.426;18.906;2023-04-01T00:42:17;6.82;;;3.72;;
48122;SDS011;33907;47.426;18.906;2023-04-01T00:44:46;6.35;;;4.15;;
48122;SDS011;33907;47.426;18.906;2023-04-01T00:47:17;7.10;;;3.67;;
48122;SDS011;33907;47.426;18.906;2023-04-01T00:49:46;6.20;;;3.90;;
48122;SDS011;33907;47.426;18.906;2023-04-01T00:52:17;7.00;;;4.37;;
48122;SDS011;33907;47.426;18.906;2023-04-01T00:54:47;7.60;;;3.60;;
48122;SDS011;33907;47.426;18.906;2023-04-01T00:57:18;9.02;;;3.92;;
48122;SDS011;33907;47.426;18.906;2023-04-01T00:59:49;7.00;;;3.58;;
48122;SDS011;33907;47.426;18.906;2023-04-01T01:02:19;6.22;;;3.72;;
48122;SDS011;33907;47.426;18.906;2023-04-01T01:04:47;6.40;;;4.22;;
48122;SDS011;33907;47.426;18.906;2023-04-01T01:34:24;6.20;;;4.12;;
48122;SDS011;33907;47.426;18.906;2023-04-01T01:37:15;6.18;;;3.97;;
48122;SDS011;33907;47.426;18.906;2023-04-01T01:39:49;7.07;;;4.20;;
48122;SDS011;33907;47.426;18.906;2023-04-01T01:42:20;5.85;;;3.85;;
48122;SDS011;33907;47.426;18.906;2023-04-01T01:44:48;6.87;;;4.28;;
48122;SDS011;33907;47.426;18.906;2023-04-01T01:47:17;6.03;;;3.45;;
48122;SDS011;33907;47.426;18.906;2023-04-01T01:49:46;6.80;;;3.80;;
48122;SDS011;33907;47.426;18.906;2023-04-01T01:52:16;7.87;;;4.20;;
48122;SDS011;33907;47.426;18.906;2023-04-01T01:54:54;6.55;;;3.78;;
48122;SDS011;33907;47.426;18.906;2023-04-01T01:57:24;5.70;;;3.90;;
48122;SDS011;33907;47.426;18.906;2023-04-01T02:00:02;7.95;;;3.90;;
48122;SDS011;33907;47.426;18.906;2023-04-01T02:02:39;5.87;;;3.67;;
48122;SDS011;33907;47.426;18.906;2023-04-01T02:05:15;5.80;;;3.80;;
48122;SDS011;33907;47.426;18.906;2023-04-01T02:07:46;6.03;;;3.65;;
48122;SDS011;33907;47.426;18.906;2023-04-01T02:10:18;7.75;;;3.60;;
48122;SDS011;33907;47.426;18.906;2023-04-01T02:12:47;5.68;;;3.60;;
48122;SDS011;33907;47.426;18.906;2023-04-01T02:15:15;7.32;;;3.80;;
48122;SDS011;33907;47.426;18.906;2023-04-01T02:17:44;6.87;;;3.80;;
48122;SDS011;33907;47.426;18.906;2023-04-01T02:20:15;5.60;;;3.85;;
48122;SDS011;33907;47.426;18.906;2023-04-01T02:22:46;6.97;;;3.80;;
48122;SDS011;33907;47.426;18.906;2023-04-01T02:25:17;10.60;;;4.90;;
48122;SDS011;33907;47.426;18.906;2023-04-01T02:27:48;5.80;;;3.65;;
48122;SDS011;33907;47.426;18.906;2023-04-01T02:30:16;8.63;;;4.22;;
48122;SDS011;33907;47.426;18.906;2023-04-01T02:32:45;6.72;;;4.12;;
48122;SDS011;33907;47.426;18.906;2023-04-01T02:35:13;7.82;;;4.15;;
48122;SDS011;33907;47.426;18.906;2023-04-01T02:37:43;7.50;;;3.65;;
48122;SDS011;33907;47.426;18.906;2023-04-01T02:40:12;6.50;;;3.58;;
48122;SDS011;33907;47.426;18.906;2023-04-01T02:42:41;5.10;;;3.00;;
48122;SDS011;33907;47.426;18.906;2023-04-01T02:45:09;5.07;;;2.83;;
48122;SDS011;33907;47.426;18.906;2023-04-01T02:47:37;5.53;;;3.12;;
48122;SDS011;33907;47.426;18.906;2023-04-01T02:50:06;6.10;;;2.78;;
48122;SDS011;33907;47.426;18.906;2023-04-01T02:52:34;5.53;;;2.80;;
48122;SDS011;33907;47.426;18.906;2023-04-01T02:55:02;5.22;;;2.22;;
48122;SDS011;33907;47.426;18.906;2023-04-01T02:57:30;5.90;;;2.40;;
48122;SDS011;33907;47.426;18.906;2023-04-01T02:59:57;5.53;;;2.55;;
48122;SDS011;33907;47.426;18.906;2023-04-01T03:02:25;4.75;;;2.17;;
48122;SDS011;33907;47.426;18.906;2023-04-01T03:04:53;5.80;;;2.20;;
48122;SDS011;33907;47.426;18.906;2023-04-01T03:07:21;4.72;;;2.22;;
48122;SDS011;33907;47.426;18.906;2023-04-01T03:09:49;4.97;;;2.33;;
48122;SDS011;33907;47.426;18.906;2023-04-01T03:12:16;4.95;;;2.10;;
48122;SDS011;33907;47.426;18.906;2023-04-01T03:14:44;3.92;;;2.05;;
48122;SDS011;33907;47.426;18.906;2023-04-01T03:17:12;4.78;;;1.83;;
48122;SDS011;33907;47.426;18.906;2023-04-01T03:19:39;5.40;;;1.98;;
48122;SDS011;33907;47.426;18.906;2023-04-01T03:22:07;4.25;;;1.60;;
48122;SDS011;33907;47.426;18.906;2023-04-01T03:24:37;3.50;;;1.77;;
48122;SDS011;33907;47.426;18.906;2023-04-01T03:27:04;3.22;;;1.65;;
48122;SDS011;33907;47.426;18.906;2023-04-01T03:29:32;3.90;;;1.58;;
48122;SDS011;33907;47.426;18.906;2023-04-01T03:32:00;4.90;;;1.73;;
48122;SDS011;33907;47.426;18.906;2023-04-01T03:34:27;3.78;;;1.65;;
48122;SDS011;33907;47.426;18.906;2023-04-01T03:36:55;4.70;;;1.75;;
48122;SDS011;33907;47.426;18.906;2023-04-01T03:39:22;3.28;;;1.50;;
48122;SDS011;33907;47.426;18.906;2023-04-01T03:41:50;5.05;;;1.67;;
48122;SDS011;33907;47.426;18.906;2023-04-01T03:44:17;3.55;;;1.70;;
48122;SDS011;33907;47.426;18.906;2023-04-01T03:46:45;4.60;;;1.77;;
48122;SDS011;33907;47.426;18.906;2023-04-01T03:49:14;5.18;;;1.50;;
48122;SDS011;33907;47.426;18.906;2023-04-01T03:51:42;3.05;;;1.42;;
48122;SDS011;33907;47.426;18.906;2023-04-01T03:54:10;3.10;;;1.50;;
48122;SDS011;33907;47.426;18.906;2023-04-01T03:56:38;3.60;;;1.08;;
48122;SDS011;33907;47.426;18.906;2023-04-01T03:59:06;4.68;;;1.42;;
48122;SDS011;33907;47.426;18.906;2023-04-01T04:01:34;3.00;;;1.30;;
48122;SDS011;33907;47.426;18.906;2023-04-01T04:04:02;3.95;;;1.40;;
48122;SDS011;33907;47.426;18.906;2023-04-01T04:06:30;3.25;;;1.20;;
48122;SDS011;33907;47.426;18.906;2023-04-01T04:08:58;2.75;;;1.27;;
48122;SDS011;33907;47.426;18.906;2023-04-01T04:11:26;2.60;;;1.12;;
48122;SDS011;33907;47.426;18.906;2023-04-01T04:13:53;5.75;;;1.40;;
48122;SDS011;33907;47.426;18.906;2023-04-01T04:16:23;2.78;;;1.20;;
48122;SDS011;33907;47.426;18.906;2023-04-01T04:18:52;3.40;;;1.37;;
48122;SDS011;33907;47.426;18.906;2023-04-01T04:21:19;3.08;;;1.10;;
48122;SDS011;33907;47.426;18.906;2023-04-01T04:23:46;3.75;;;1.62;;
48122;SDS011;33907;47.426;18.906;2023-04-01T04:26:14;3.70;;;1.42;;
48122;SDS011;33907;47.426;18.906;2023-04-01T04:28:44;3.85;;;1.60;;
48122;SDS011;33907;47.426;18.906;2023-04-01T04:31:11;2.40;;;1.05;;
48122;SDS011;33907;47.426;18.906;2023-04-01T04:33:40;6.47;;;1.50;;
48122;SDS011;33907;47.426;18.906;2023-04-01T04:36:08;2.37;;;1.08;;
48122;SDS011;33907;47.426;18.906;2023-04-01T04:38:36;3.75;;;1.50;;
48122;SDS011;33907;47.426;18.906;2023-04-01T04:41:07;3.30;;;1.30;;
48122;SDS011;33907;47.426;18.906;2023-04-01T04:43:36;4.90;;;1.60;;
48122;SDS011;33907;47.426;18.906;2023-04-01T04:46:06;3.67;;;1.45;;
48122;SDS011;33907;47.426;18.906;2023-04-01T04:48:34;3.67;;;1.50;;
48122;SDS011;33907;47.426;18.906;2023-04-01T04:51:02;5.55;;;2.42;;
48122;SDS011;33907;47.426;18.906;2023-04-01T04:53:30;3.60;;;1.33;;
48122;SDS011;33907;47.426;18.906;2023-04-01T04:55:58;3.85;;;1.95;;
48122;SDS011;33907;47.426;18.906;2023-04-01T04:58:26;3.53;;;1.55;;
48122;SDS011;33907;47.426;18.906;2023-04-01T05:00:54;3.90;;;1.62;;
48122;SDS011;33907;47.426;18.906;2023-04-01T05:03:22;2.40;;;1.37;;
48122;SDS011;33907;47.426;18.906;2023-04-01T05:05:50;3.22;;;1.50;;
48122;SDS011;33907;47.426;18.906;2023-04-01T05:08:19;6.95;;;1.90;;
48122;SDS011;33907;47.426;18.906;2023-04-01T05:10:47;4.80;;;1.70;;
48122;SDS011;33907;47.426;18.906;2023-04-01T05:13:14;5.43;;;2.10;;
48122;SDS011;33907;47.426;18.906;2023-04-01T05:15:45;3.33;;;1.77;;
48122;SDS011;33907;47.426;18.906;2023-04-01T05:18:12;4.28;;;1.85;;
48122;SDS011;33907;47.426;18.906;2023-04-01T05:20:45;3.42;;;1.67;;
48122;SDS011;33907;47.426;18.906;2023-04-01T05:23:14;4.25;;;1.90;;
48122;SDS011;33907;47.426;18.906;2023-04-01T05:25:41;5.12;;;2.00;;
48122;SDS011;33907;47.426;18.906;2023-04-01T05:28:09;7.22;;;1.77;;
48122;SDS011;33907;47.426;18.906;2023-04-01T05:30:39;6.40;;;1.98;;
48122;SDS011;33907;47.426;18.906;2023-04-01T05:33:09;3.85;;;1.65;;
48122;SDS011;33907;47.426;18.906;2023-04-01T05:35:37;2.67;;;1.50;;
48122;SDS011;33907;47.426;18.906;2023-04-01T05:38:05;3.70;;;1.73;;
48122;SDS011;33907;47.426;18.906;2023-04-01T05:40:35;4.65;;;1.50;;
48122;SDS011;33907;47.426;18.906;2023-04-01T05:43:03;4.37;;;1.60;;
48122;SDS011;33907;47.426;18.906;2023-04-01T05:45:30;3.75;;;1.27;;
48122;SDS011;33907;47.426;18.906;2023-04-01T05:48:06;4.40;;;1.50;;
48122;SDS011;33907;47.426;18.906;2023-04-01T05:50:34;6.00;;;1.65;;
48122;SDS011;33907;47.426;18.906;2023-04-01T05:53:02;5.70;;;1.62;;
48122;SDS011;33907;47.426;18.906;2023-04-01T05:55:29;5.93;;;1.75;;
48122;SDS011;33907;47.426;18.906;2023-04-01T05:57:57;3.83;;;1.60;;
48122;SDS011;33907;47.426;18.906;2023-04-01T06:00:26;3.50;;;1.40;;
48122;SDS011;33907;47.426;18.906;2023-04-01T06:02:54;4.40;;;1.42;;
48122;SDS011;33907;47.426;18.906;2023-04-01T06:05:24;4.97;;;1.75;;
48122;SDS011;33907;47.426;18.906;2023-04-01T06:07:54;3.50;;;1.50;;
48122;SDS011;33907;47.426;18.906;2023-04-01T06:13:24;4.32;;;1.60;;
48122;SDS011;33907;47.426;18.906;2023-04-01T06:16:00;6.40;;;1.42;;
48122;SDS011;33907;47.426;18.906;2023-04-01T06:26:32;5.80;;;2.05;;
48122;SDS011;33907;47.426;18.906;2023-04-01T06:52:05;9.43;;;1.35;;
48122;SDS011;33907;47.426;18.906;2023-04-01T06:55:01;4.15;;;1.50;;
48122;SDS011;33907;47.426;18.906;2023-04-01T06:57:38;4.60;;;1.27;;
48122;SDS011;33907;47.426;18.906;2023-04-01T07:00:14;5.60;;;1.45;;
48122;SDS011;33907;47.426;18.906;2023-04-01T07:02:59;3.53;;;1.25;;
48122;SDS011;33907;47.426;18.906;2023-04-01T07:05:33;4.07;;;1.10;;
48122;SDS011;33907;47.426;18.906;2023-04-01T07:08:03;5.93;;;1.42;;
48122;SDS011;33907;47.426;18.906;2023-04-01T07:10:43;5.75;;;1.45;;
48122;SDS011;33907;47.426;18.906;2023-04-01T07:13:27;4.85;;;1.25;;
48122;SDS011;33907;47.426;18.906;2023-04-01T07:16:00;5.78;;;1.70;;
48122;SDS011;33907;47.426;18.906;2023-04-01T07:18:37;6.12;;;2.17;;
48122;SDS011;33907;47.426;18.906;2023-04-01T07:21:09;4.93;;;1.45;;
48122;SDS011;33907;47.426;18.906;2023-04-01T07:23:42;6.50;;;1.55;;
48122;SDS011;33907;47.426;18.906;2023-04-01T07:26:19;4.82;;;1.50;;
48122;SDS011;33907;47.426;18.906;2023-04-01T07:28:52;4.53;;;1.58;;
48122;SDS011;33907;47.426;18.906;2023-04-01T07:31:34;3.70;;;1.40;;
48122;SDS011;33907;47.426;18.906;2023-04-01T07:37:10;5.03;;;1.50;;
48122;SDS011;33907;47.426;18.906;2023-04-01T07:42:30;4.18;;;1.55;;
48122;SDS011;33907;47.426;18.906;2023-04-01T07:51:04;6.53;;;1.17;;
48122;SDS011;33907;47.426;18.906;2023-04-01T07:53:58;5.37;;;1.00;;
48122;SDS011;33907;47.426;18.906;2023-04-01T08:01:49;3.00;;;1.12;;
48122;SDS011;33907;47.426;18.906;2023-04-01T08:04:25;4.22;;;1.02;;
48122;SDS011;33907;47.426;18.906;2023-04-01T08:09:53;3.87;;;1.90;;
48122;SDS011;33907;47.426;18.906;2023-04-01T08:15:39;4.15;;;1.20;;
48122;SDS011;33907;47.426;18.906;2023-04-01T08:23:26;1.55;;;0.68;;
48122;SDS011;33907;47.426;18.906;2023-04-01T08:25:57;2.95;;;0.73;;
48122;SDS011;33907;47.426;18.906;2023-04-01T08:33:50;2.33;;;0.60;;
48122;SDS011;33907;47.426;18.906;2023-04-01T08:36:28;4.32;;;0.90;;
48122;SDS011;33907;47.426;18.906;2023-04-01T08:39:09;3.33;;;1.25;;
48122;SDS011;33907;47.426;18.906;2023-04-01T08:50:18;4.90;;;1.12;;
48122;SDS011;33907;47.426;18.906;2023-04-01T08:53:00;4.68;;;1.10;;
48122;SDS011;33907;47.426;18.906;2023-04-01T09:04:13;4.32;;;1.15;;
48122;SDS011;33907;47.426;18.906;2023-04-01T09:06:50;3.67;;;1.27;;
48122;SDS011;33907;47.426;18.906;2023-04-01T09:23:21;3.70;;;1.10;;
48122;SDS011;33907;47.426;18.906;2023-04-01T09:34:25;6.30;;;1.02;;
48122;SDS011;33907;47.426;18.906;2023-04-01T09:39:38;2.45;;;0.80;;
48122;SDS011;33907;47.426;18.906;2023-04-01T09:44:47;4.12;;;1.10;;
48122;SDS011;33907;47.426;18.906;2023-04-01T09:50:27;4.15;;;1.02;;
48122;SDS011;33907;47.426;18.906;2023-04-01T09:53:17;4.70;;;1.27;;
48122;SDS011;33907;47.426;18.906;2023-04-01T09:55:57;4.22;;;1.08;;
48122;SDS011;33907;47.426;18.906;2023-04-01T10:15:57;4.50;;;1.30;;
48122;SDS011;33907;47.426;18.906;2023-04-01T10:24:35;4.62;;;1.20;;
48122;SDS011;33907;47.426;18.906;2023-04-01T10:38:34;4.65;;;0.75;;
48122;SDS011;33907;47.426;18.906;2023-04-01T11:21:32;3.67;;;1.23;;
48122;SDS011;33907;47.426;18.906;2023-04-01T11:29:23;3.33;;;0.70;;
48122;SDS011;33907;47.426;18.906;2023-04-01T11:43:57;2.87;;;0.60;;
48122;SDS011;33907;47.426;18.906;2023-04-01T11:49:44;3.30;;;0.82;;
48122;SDS011;33907;47.426;18.906;2023-04-01T12:06:05;3.33;;;0.80;;
48122;SDS011;33907;47.426;18.906;2023-04-01T12:19:58;2.97;;;0.68;;
48122;SDS011;33907;47.426;18.906;2023-04-01T12:22:33;2.85;;;0.60;;
48122;SDS011;33907;47.426;18.906;2023-04-01T12:42:30;3.72;;;0.60;;
48122;SDS011;33907;47.426;18.906;2023-04-01T12:53:19;6.50;;;0.90;;
48122;SDS011;33907;47.426;18.906;2023-04-01T12:55:48;4.18;;;0.75;;
48122;SDS011;33907;47.426;18.906;2023-04-01T13:26:39;10.60;;;6.85;;
48122;SDS011;33907;47.426;18.906;2023-04-01T13:32:11;2.28;;;0.85;;
48122;SDS011;33907;47.426;18.906;2023-04-01T13:37:57;5.60;;;2.42;;
48122;SDS011;33907;47.426;18.906;2023-04-01T13:40:49;3.47;;;1.60;;
48122;SDS011;33907;47.426;18.906;2023-04-01T13:43:48;2.15;;;0.95;;
48122;SDS011;33907;47.426;18.906;2023-04-01T13:52:00;4.25;;;1.08;;
48122;SDS011;33907;47.426;18.906;2023-04-01T13:57:27;6.90;;;3.15;;
48122;SDS011;33907;47.426;18.906;2023-04-01T14:00:17;6.90;;;2.40;;
48122;SDS011;33907;47.426;18.906;2023-04-01T14:08:40;3.67;;;1.30;;
48122;SDS011;33907;47.426;18.906;2023-04-01T14:11:19;3.17;;;1.35;;
48122;SDS011;33907;47.426;18.906;2023-04-01T14:19:32;2.08;;;0.80;;
48122;SDS011;33907;47.426;18.906;2023-04-01T14:25:08;3.03;;;0.80;;
48122;SDS011;33907;47.426;18.906;2023-04-01T14:33:15;3.20;;;1.20;;
48122;SDS011;33907;47.426;18.906;2023-04-01T14:36:16;1.95;;;0.50;;
48122;SDS011;33907;47.426;18.906;2023-04-01T14:47:58;4.55;;;1.35;;
48122;SDS011;33907;47.426;18.906;2023-04-01T14:50:29;5.37;;;1.15;;
48122;SDS011;33907;47.426;18.906;2023-04-01T14:55:41;2.15;;;0.95;;
48122;SDS011;33907;47.426;18.906;2023-04-01T14:58:16;3.95;;;0.93;;
48122;SDS011;33907;47.426;18.906;2023-04-01T15:17:14;4.32;;;1.35;;
48122;SDS011;33907;47.426;18.906;2023-04-01T15:19:59;6.32;;;3.70;;
48122;SDS011;33907;47.426;18.906;2023-04-01T15:25:43;4.70;;;1.30;;
48122;SDS011;33907;47.426;18.906;2023-04-01T15:30:53;4.78;;;1.20;;
48122;SDS011;33907;47.426;18.906;2023-04-01T15:36:10;1.98;;;1.08;;
48122;SDS011;33907;47.426;18.906;2023-04-01T15:38:57;1.87;;;0.80;;
48122;SDS011;33907;47.426;18.906;2023-04-01T15:49:57;5.87;;;0.80;;
48122;SDS011;33907;47.426;18.906;2023-04-01T16:17:00;3.55;;;1.52;;
48122;SDS011;33907;47.426;18.906;2023-04-01T16:27:54;1.90;;;0.70;;
48122;SDS011;33907;47.426;18.906;2023-04-01T16:30:57;2.00;;;0.70;;
48122;SDS011;33907;47.426;18.906;2023-04-01T16:33:59;4.10;;;1.40;;
48122;SDS011;33907;47.426;18.906;2023-04-01T16:36:42;2.12;;;0.75;;
48122;SDS011;33907;47.426;18.906;2023-04-01T16:39:41;3.53;;;0.93;;
48122;SDS011;33907;47.426;18.906;2023-04-01T16:42:31;8.65;;;3.15;;
48122;SDS011;33907;47.426;18.906;2023-04-01T16:47:41;3.85;;;1.30;;
48122;SDS011;33907;47.426;18.906;2023-04-01T16:50:19;3.45;;;1.10;;
48122;SDS011;33907;47.426;18.906;2023-04-01T16:52:59;2.40;;;0.70;;
48122;SDS011;33907;47.426;18.906;2023-04-01T16:55:52;3.25;;;1.30;;
48122;SDS011;33907;47.426;18.906;2023-04-01T16:58:23;3.25;;;1.35;;
48122;SDS011;33907;47.426;18.906;2023-04-01T17:00:55;5.03;;;2.10;;
48122;SDS011;33907;47.426;18.906;2023-04-01T17:11:13;2.05;;;0.50;;
48122;SDS011;33907;47.426;18.906;2023-04-01T17:22:12;2.75;;;0.70;;
48122;SDS011;33907;47.426;18.906;2023-04-01T17:25:17;1.95;;;0.50;;
48122;SDS011;33907;47.426;18.906;2023-04-01T17:30:37;6.15;;;1.83;;
48122;SDS011;33907;47.426;18.906;2023-04-01T17:36:15;2.83;;;0.70;;
48122;SDS011;33907;47.426;18.906;2023-04-01T17:44:46;3.53;;;1.15;;
48122;SDS011;33907;47.426;18.906;2023-04-01T17:59:27;4.35;;;1.20;;
48122;SDS011;33907;47.426;18.906;2023-04-01T18:02:21;2.30;;;0.95;;
48122;SDS011;33907;47.426;18.906;2023-04-01T18:10:40;2.22;;;0.80;;
48122;SDS011;33907;47.426;18.906;2023-04-01T18:13:27;5.03;;;1.17;;
48122;SDS011;33907;47.426;18.906;2023-04-01T18:16:18;3.17;;;0.93;;
48122;SDS011;33907;47.426;18.906;2023-04-01T18:27:15;2.42;;;0.85;;
48122;SDS011;33907;47.426;18.906;2023-04-01T18:30:06;4.12;;;1.27;;
48122;SDS011;33907;47.426;18.906;2023-04-01T18:35:45;4.07;;;1.40;;
48122;SDS011;33907;47.426;18.906;2023-04-01T18:46:39;6.00;;;1.48;;
48122;SDS011;33907;47.426;18.906;2023-04-01T18:49:29;2.92;;;1.45;;
48122;SDS011;33907;47.426;18.906;2023-04-01T18:57:39;5.28;;;1.55;;
48122;SDS011;33907;47.426;18.906;2023-04-01T19:00:21;7.18;;;1.70;;
48122;SDS011;33907;47.426;18.906;2023-04-01T19:02:58;5.72;;;1.42;;
48122;SDS011;33907;47.426;18.906;2023-04-01T19:05:33;5.12;;;2.22;;
48122;SDS011;33907;47.426;18.906;2023-04-01T19:08:16;6.97;;;2.72;;
48122;SDS011;33907;47.426;18.906;2023-04-01T19:16:37;5.75;;;1.95;;
48122;SDS011;33907;47.426;18.906;2023-04-01T19:19:15;4.25;;;1.87;;
48122;SDS011;33907;47.426;18.906;2023-04-01T19:22:22;5.65;;;2.22;;
48122;SDS011;33907;47.426;18.906;2023-04-01T19:28:38;8.45;;;1.70;;
48122;SDS011;33907;47.426;18.906;2023-04-01T19:31:39;6.05;;;2.00;;
48122;SDS011;33907;47.426;18.906;2023-04-01T19:36:59;5.28;;;1.95;;
48122;SDS011;33907;47.426;18.906;2023-04-01T19:42:12;6.07;;;1.92;;
48122;SDS011;33907;47.426;18.906;2023-04-01T19:48:17;4.72;;;1.92;;
48122;SDS011;33907;47.426;18.906;2023-04-01T19:50:48;5.12;;;2.08;;
48122;SDS011;33907;47.426;18.906;2023-04-01T19:56:35;4.53;;;1.90;;
48122;SDS011;33907;47.426;18.906;2023-04-01T20:07:17;5.68;;;2.22;;
48122;SDS011;33907;47.426;18.906;2023-04-01T20:10:14;7.05;;;2.20;;
48122;SDS011;33907;47.426;18.906;2023-04-01T20:16:00;4.82;;;1.85;;
48122;SDS011;33907;47.426;18.906;2023-04-01T20:18:39;4.47;;;2.03;;
48122;SDS011;33907;47.426;18.906;2023-04-01T20:23:45;7.10;;;2.87;;
48122;SDS011;33907;47.426;18.906;2023-04-01T20:26:22;6.37;;;2.55;;
48122;SDS011;33907;47.426;18.906;2023-04-01T20:29:18;6.68;;;2.80;;
48122;SDS011;33907;47.426;18.906;2023-04-01T20:34:43;6.47;;;2.47;;
48122;SDS011;33907;47.426;18.906;2023-04-01T20:37:37;6.25;;;2.85;;
48122;SDS011;33907;47.426;18.906;2023-04-01T20:43:33;6.80;;;2.85;;
48122;SDS011;33907;47.426;18.906;2023-04-01T20:51:41;7.70;;;3.17;;
48122;SDS011;33907;47.426;18.906;2023-04-01T20:56:56;5.75;;;3.17;;
48122;SDS011;33907;47.426;18.906;2023-04-01T21:11:16;5.82;;;2.90;;
48122;SDS011;33907;47.426;18.906;2023-04-01T21:16:41;7.12;;;3.40;;
48122;SDS011;33907;47.426;18.906;2023-04-01T21:24:54;6.87;;;3.58;;
48122;SDS011;33907;47.426;18.906;2023-04-01T21:27:46;7.25;;;3.60;;
48122;SDS011;33907;47.426;18.906;2023-04-01T21:30:21;6.80;;;3.42;;
48122;SDS011;33907;47.426;18.906;2023-04-01T21:35:39;7.93;;;4.20;;
48122;SDS011;33907;47.426;18.906;2023-04-01T21:53:31;7.05;;;3.42;;
48122;SDS011;33907;47.426;18.906;2023-04-01T21:56:24;6.15;;;3.40;;
48122;SDS011;33907;47.426;18.906;2023-04-01T22:07:48;5.65;;;2.80;;
48122;SDS011;33907;47.426;18.906;2023-04-01T22:10:22;6.30;;;2.85;;
48122;SDS011;33907;47.426;18.906;2023-04-01T22:13:16;6.97;;;3.33;;
48122;SDS011;33907;47.426;18.906;2023-04-01T22:27:18;8.93;;;3.45;;
48122;SDS011;33907;47.426;18.906;2023-04-01T22:32:18;7.65;;;3.62;;
48122;SDS011;33907;47.426;18.906;2023-04-01T22:34:54;7.18;;;3.55;;
48122;SDS011;33907;47.426;18.906;2023-04-01T22:40:32;8.45;;;4.43;;
48122;SDS011;33907;47.426;18.906;2023-04-01T22:43:08;7.40;;;3.62;;
48122;SDS011;33907;47.426;18.906;2023-04-01T22:48:26;6.95;;;3.30;;
48122;SDS011;33907;47.426;18.906;2023-04-01T22:56:37;6.15;;;3.30;;
48122;SDS011;33907;47.426;18.906;2023-04-01T23:01:43;6.70;;;2.53;;
48122;SDS011;33907;47.426;18.906;2023-04-01T23:04:15;7.97;;;2.62;;
48122;SDS011;33907;47.426;18.906;2023-04-01T23:06:46;4.65;;;2.22;;
48122;SDS011;33907;47.426;18.906;2023-04-01T23:09:17;4.50;;;2.10;;
48122;SDS011;33907;47.426;18.906;2023-04-01T23:14:28;3.65;;;1.80;;
48122;SDS011;33907;47.426;18.906;2023-04-01T23:25:04;2.75;;;1.33;;
48122;SDS011;33907;47.426;18.906;2023-04-01T23:28:02;3.35;;;1.62;;
48122;SDS011;33907;47.426;18.906;2023-04-01T23:35:58;2.42;;;1.25;;
48122;SDS011;33907;47.426;18.906;2023-04-01T23:38:34;3.55;;;1.60;;
48122;SDS011;33907;47.426;18.906;2023-04-01T23:41:04;4.47;;;1.65;;
48122;SDS011;33907;47.426;18.906;2023-04-01T23:43:36;3.87;;;1.62;;
48122;SDS011;33907;47.426;18.906;2023-04-01T23:46:06;4.70;;;1.70;;
48122;SDS011;33907;47.426;18.906;2023-04-01T23:51:20;3.78;;;1.50;;
48122;SDS011;33907;47.426;18.906;2023-04-01T23:53:55;3.50;;;1.40;;
48122;SDS011;33907;47.426;18.906;2023-04-01T23:56:39;3.83;;;1.50;;
48122;SDS011;33907;47.426;18.906;2023-04-01T23:59:22;3.75;;;1.83;;
